Time;durP1;ratioP1;P1;durP2;ratioP2;P2;SDS_P1;SDS_P2;PMS_P1;PMS_P2;Temp;Humidity;BMP_temperature;BMP_pressure;BME280_temperature;BME280_humidity;BME280_pressure;Samples;Min_cycle;Max_cycle;Signal;HPM_P1;HPM_P2
2023/01/07 00:01:16;;;;;;;27.38;15.73;;;8.80;99.90;;;;;;5026475;28;20098;-81
2023/01/07 00:03:42;;;;;;;25.67;16.08;;;8.80;99.90;;;;;;5026052;28;20092;-81
2023/01/07 00:06:11;;;;;;;22.75;16.25;;;8.90;99.90;;;;;;5026634;28;20052;-81
2023/01/07 00:08:39;;;;;;;22.33;16.05;;;9.50;99.90;;;;;;5009047;28;20053;-81
2023/01/07 00:11:07;;;;;;;28.27;16.23;;;9.90;99.90;;;;;;5025791;28;20041;-81
2023/01/07 00:13:34;;;;;;;26.60;16.02;;;9.30;99.90;;;;;;5012348;28;20048;-81
2023/01/07 00:16:05;;;;;;;30.05;17.23;;;9.10;99.90;;;;;;5029923;28;20052;-81
2023/01/07 00:18:32;;;;;;;26.73;17.90;;;9.00;99.90;;;;;;5029464;28;20417;-81
2023/01/07 00:20:59;;;;;;;25.55;16.35;;;9.20;99.90;;;;;;5012589;28;20041;-82
2023/01/07 00:23:26;;;;;;;25.48;17.17;;;9.50;99.90;;;;;;5013366;28;20443;-81
2023/01/07 00:25:59;;;;;;;30.25;17.52;;;9.30;99.90;;;;;;5028183;28;20477;-81
2023/01/07 00:28:25;;;;;;;27.15;17.23;;;9.40;99.90;;;;;;5029697;28;20048;-82
2023/01/07 00:30:51;;;;;;;31.08;17.65;;;9.60;99.90;;;;;;5028958;28;20049;-82
2023/01/07 00:33:18;;;;;;;30.30;18.48;;;9.40;99.90;;;;;;5029181;28;20041;-82
2023/01/07 00:35:44;;;;;;;28.17;17.60;;;9.40;99.90;;;;;;5012829;28;20048;-82
2023/01/07 00:38:10;;;;;;;26.83;17.52;;;10.30;99.90;;;;;;5012725;28;20047;-82
2023/01/07 00:40:37;;;;;;;27.13;18.30;;;9.50;99.90;;;;;;5047715;28;20043;-82
2023/01/07 00:43:06;;;;;;;26.80;18.17;;;9.70;99.90;;;;;;5011405;28;20049;-82
2023/01/07 00:45:34;;;;;;;22.40;15.95;;;9.60;99.90;;;;;;5029222;28;20095;-82
2023/01/07 00:48:01;;;;;;;26.30;17.73;;;9.60;99.90;;;;;;5028030;28;20076;-82
2023/01/07 00:50:33;;;;;;;21.17;16.33;;;9.60;99.90;;;;;;5028685;28;20300;-82
2023/01/07 00:52:59;;;;;;;23.80;16.58;;;9.80;99.90;;;;;;5028959;28;20095;-82
2023/01/07 00:55:26;;;;;;;22.40;16.65;;;9.70;99.90;;;;;;5029140;28;20049;-82
2023/01/07 00:57:53;;;;;;;20.30;15.07;;;9.80;99.90;;;;;;5012862;28;20484;-81
2023/01/07 01:00:20;;;;;;;24.73;15.80;;;9.80;99.90;;;;;;5011980;28;20045;-82
2023/01/07 01:02:47;;;;;;;19.77;15.02;;;9.80;99.90;;;;;;5029638;28;20119;-82
2023/01/07 01:05:13;;;;;;;21.10;15.00;;;9.90;99.90;;;;;;5011674;28;20041;-82
2023/01/07 01:07:39;;;;;;;21.60;15.32;;;9.90;99.90;;;;;;5028194;28;20045;-81
2023/01/07 01:10:08;;;;;;;18.25;15.10;;;9.90;99.90;;;;;;5012035;28;20128;-81
2023/01/07 01:12:34;;;;;;;18.70;14.90;;;9.90;99.90;;;;;;5027890;28;20049;-81
2023/01/07 01:15:02;;;;;;;17.50;14.05;;;10.00;99.90;;;;;;5011820;28;20405;-82
2023/01/07 01:17:28;;;;;;;20.65;13.68;;;10.00;99.90;;;;;;5027486;28;20124;-81
2023/01/07 01:19:53;;;;;;;20.10;14.32;;;10.10;99.90;;;;;;5028122;28;20171;-81
2023/01/07 01:22:19;;;;;;;20.20;15.38;;;10.00;99.90;;;;;;5011573;28;20037;-82
2023/01/07 01:24:45;;;;;;;19.00;13.30;;;10.10;99.90;;;;;;5011909;28;20526;-82
2023/01/07 01:27:10;;;;;;;17.08;13.57;;;10.10;99.90;;;;;;5011614;28;20393;-82
2023/01/07 01:29:36;;;;;;;17.20;12.63;;;10.10;99.90;;;;;;5027354;28;20045;-82
2023/01/07 01:32:02;;;;;;;16.55;12.32;;;10.90;99.90;;;;;;5011932;28;20037;-81
2023/01/07 01:34:27;;;;;;;19.67;13.50;;;10.10;99.90;;;;;;5010743;28;20053;-82
2023/01/07 01:36:53;;;;;;;16.90;12.40;;;10.20;99.90;;;;;;5011752;28;20041;-82
2023/01/07 01:39:19;;;;;;;15.50;12.25;;;10.20;99.90;;;;;;5027498;28;20045;-82
2023/01/07 01:41:46;;;;;;;16.88;12.52;;;10.20;99.90;;;;;;4995062;28;20045;-82
2023/01/07 01:44:42;;;;;;;17.75;13.70;;;10.20;99.90;;;;;;5027881;28;20128;-82
2023/01/07 01:47:20;;;;;;;18.08;12.10;;;10.30;99.90;;;;;;5025480;28;20060;-82
2023/01/07 01:49:56;;;;;;;14.25;11.90;;;10.40;99.90;;;;;;5027858;28;20091;-82
2023/01/07 01:52:29;;;;;;;17.85;13.13;;;10.30;99.90;;;;;;5027776;28;20365;-82
2023/01/07 01:54:57;;;;;;;13.45;10.77;;;10.50;99.90;;;;;;5010679;28;20127;-82
2023/01/07 01:57:25;;;;;;;18.92;12.38;;;10.30;99.90;;;;;;5011240;28;20037;-82
2023/01/07 01:59:51;;;;;;;15.38;11.20;;;10.30;99.90;;;;;;5010314;28;20420;-82
2023/01/07 02:02:34;;;;;;;14.73;11.75;;;10.60;99.90;;;;;;5011359;28;20067;-82
2023/01/07 02:05:01;;;;;;;;;;;10.40;99.90;;;;;;5010955;28;20076;-82
2023/01/07 02:07:27;;;;;;;12.30;10.52;;;10.40;99.90;;;;;;5010552;28;19974;-81
2023/01/07 02:10:08;;;;;;;14.73;12.45;;;10.40;99.90;;;;;;5011456;28;20044;-82
2023/01/07 02:12:52;;;;;;;16.10;12.38;;;10.50;99.90;;;;;;5010373;28;20477;-82
2023/01/07 02:15:32;;;;;;;15.80;11.68;;;10.40;99.90;;;;;;5027720;28;20122;-82
2023/01/07 02:18:06;;;;;;;18.08;11.88;;;10.50;99.90;;;;;;5026635;28;20124;-82
2023/01/07 02:21:16;;;;;;;17.15;13.45;;;10.50;99.90;;;;;;5010430;28;20049;-83
2023/01/07 02:24:06;;;;;;;14.20;11.27;;;10.50;99.90;;;;;;5012803;28;20416;-82
2023/01/07 02:26:44;;;;;;;15.15;12.85;;;10.50;99.90;;;;;;5026597;28;20056;-82
2023/01/07 02:29:45;;;;;;;19.20;12.38;;;10.50;99.90;;;;;;5010751;28;20523;-82
2023/01/07 02:32:45;;;;;;;17.83;12.73;;;10.60;99.90;;;;;;5027532;28;20517;-81
2023/01/07 02:35:34;;;;;;;15.63;13.35;;;10.50;99.90;;;;;;5009660;28;20103;-81
2023/01/07 02:38:02;;;;;;;14.50;12.15;;;10.60;99.90;;;;;;5002034;28;20073;-82
2023/01/07 02:40:41;;;;;;;14.98;12.88;;;10.70;99.90;;;;;;5027063;28;20541;-81
2023/01/07 02:43:29;;;;;;;15.48;12.57;;;10.60;99.90;;;;;;5010097;28;20394;-82
2023/01/07 02:46:05;;;;;;;17.58;13.73;;;10.60;99.90;;;;;;5010950;28;20053;-82
2023/01/07 02:48:32;;;;;;;19.85;14.90;;;11.30;99.90;;;;;;5026603;28;20053;-82
2023/01/07 02:50:58;;;;;;;16.98;13.27;;;10.60;99.90;;;;;;5009816;28;20052;-82
2023/01/07 02:53:24;;;;;;;17.77;14.77;;;10.60;99.90;;;;;;4994562;28;20037;-82
2023/01/07 02:56:03;;;;;;;15.77;13.40;;;10.70;99.90;;;;;;5009663;28;20516;-82
2023/01/07 02:59:02;;;;;;;18.08;14.02;;;11.80;99.90;;;;;;5027215;28;20427;-80
2023/01/07 03:01:58;;;;;;;15.77;12.85;;;10.70;99.90;;;;;;5002930;28;20266;-81
2023/01/07 03:05:06;;;;;;;16.98;13.60;;;10.70;99.90;;;;;;5025893;28;20049;-81
2023/01/07 03:07:55;;;;;;;16.25;13.70;;;10.70;99.90;;;;;;5026462;28;20045;-82
2023/01/07 03:10:59;;;;;;;16.17;12.73;;;10.70;99.90;;;;;;5010096;28;20048;-82
2023/01/07 03:13:32;;;;;;;14.60;12.70;;;10.70;99.90;;;;;;4949753;28;20498;-81
2023/01/07 03:16:33;;;;;;;17.95;12.68;;;10.70;99.90;;;;;;5016854;28;20571;-81
2023/01/07 03:19:10;;;;;;;15.57;13.43;;;10.70;99.90;;;;;;5010387;28;20041;-81
2023/01/07 03:21:36;;;;;;;16.88;14.05;;;10.70;99.90;;;;;;5026124;28;20404;-81
2023/01/07 03:24:05;;;;;;;15.88;13.23;;;10.70;99.90;;;;;;4994067;28;20485;-82
2023/01/07 03:26:41;;;;;;;16.85;13.48;;;10.70;99.90;;;;;;5025910;28;20045;-81
2023/01/07 03:29:10;;;;;;;15.85;13.20;;;10.70;99.90;;;;;;5025999;28;20045;-82
2023/01/07 03:31:45;;;;;;;17.30;14.38;;;10.90;99.90;;;;;;5026308;28;20094;-81
2023/01/07 03:34:18;;;;;;;15.25;13.25;;;10.80;99.90;;;;;;5009410;28;20053;-81
2023/01/07 03:36:48;;;;;;;15.50;13.63;;;10.80;99.90;;;;;;5027076;28;20396;-81
2023/01/07 03:39:15;;;;;;;17.58;14.20;;;10.80;99.90;;;;;;5025932;28;20080;-82
2023/01/07 03:44:25;;;;;;;15.50;13.63;;;10.80;99.90;;;;;;5026379;28;20048;-81
2023/01/07 03:46:52;;;;;;;16.88;13.52;;;10.80;99.90;;;;;;4996400;28;20045;-82
2023/01/07 03:49:18;;;;;;;18.40;13.18;;;10.80;99.90;;;;;;5012927;28;20059;-81
2023/01/07 03:51:45;;;;;;;14.77;12.82;;;10.80;99.90;;;;;;5029489;28;20041;-81
2023/01/07 03:54:11;;;;;;;16.10;13.70;;;10.80;99.90;;;;;;5013395;28;20061;-81
2023/01/07 03:56:36;;;;;;;14.23;12.75;;;10.80;99.90;;;;;;5012871;28;20052;-81
2023/01/07 03:59:02;;;;;;;15.95;12.88;;;10.90;99.90;;;;;;5012752;28;20057;-81
2023/01/07 04:01:29;;;;;;;18.08;12.13;;;10.80;99.90;;;;;;5030080;28;20083;-82
2023/01/07 04:03:55;;;;;;;14.95;12.27;;;10.80;99.90;;;;;;5046783;28;20505;-82
2023/01/07 04:06:20;;;;;;;15.98;12.88;;;10.90;99.90;;;;;;5013358;28;20085;-81
2023/01/07 04:08:46;;;;;;;14.30;12.68;;;10.90;99.90;;;;;;5029232;28;20128;-81
2023/01/07 04:11:12;;;;;;;15.30;12.73;;;10.90;99.90;;;;;;4997116;28;20091;-82
2023/01/07 04:13:38;;;;;;;14.60;12.13;;;10.80;99.90;;;;;;5029267;28;20056;-81
2023/01/07 04:16:04;;;;;;;15.15;12.10;;;10.90;99.90;;;;;;5012941;28;20057;-81
2023/01/07 04:18:29;;;;;;;18.17;11.32;;;10.80;99.90;;;;;;4996684;28;20041;-81
2023/01/07 04:20:55;;;;;;;13.65;12.25;;;10.80;99.90;;;;;;5012748;28;20060;-81
2023/01/07 04:23:21;;;;;;;14.15;11.38;;;11.00;99.90;;;;;;5029235;28;20254;-81
2023/01/07 04:25:48;;;;;;;15.57;11.45;;;10.80;99.90;;;;;;5012244;28;20040;-81
2023/01/07 04:28:13;;;;;;;14.25;10.80;;;10.80;99.90;;;;;;5029035;28;20045;-81
2023/01/07 04:30:39;;;;;;;14.07;11.05;;;10.80;99.90;;;;;;5028816;28;20056;-81
2023/01/07 04:33:07;;;;;;;18.15;11.73;;;10.80;99.90;;;;;;4996250;28;20040;-81
2023/01/07 04:35:33;;;;;;;14.25;11.25;;;10.80;99.90;;;;;;5029252;28;20444;-81
2023/01/07 04:37:59;;;;;;;15.15;10.95;;;10.80;99.90;;;;;;4995601;28;20445;-81
2023/01/07 04:40:25;;;;;;;13.85;10.48;;;10.80;99.90;;;;;;5012649;28;20052;-81
2023/01/07 04:42:51;;;;;;;11.60;10.38;;;10.80;99.90;;;;;;5028226;28;20060;-81
2023/01/07 04:45:17;;;;;;;14.50;11.18;;;10.50;99.90;;;;;;4996779;28;20053;-81
2023/01/07 04:47:43;;;;;;;14.88;11.20;;;10.80;99.90;;;;;;4995524;28;20045;-80
2023/01/07 04:50:09;;;;;;;16.42;11.60;;;10.80;99.90;;;;;;5047036;28;20572;-81
2023/01/07 04:52:34;;;;;;;16.40;11.50;;;11.10;99.90;;;;;;5029324;28;20056;-82
2023/01/07 04:55:00;;;;;;;15.40;11.13;;;10.80;99.90;;;;;;5028866;28;20102;-81
2023/01/07 04:57:25;;;;;;;15.15;12.02;;;11.20;99.90;;;;;;5012145;28;20508;-81
2023/01/07 04:59:51;;;;;;;15.40;11.77;;;10.80;99.90;;;;;;5046159;28;20122;-82
2023/01/07 05:02:17;;;;;;;25.08;12.73;;;10.80;99.90;;;;;;5012911;28;20135;-81
2023/01/07 05:04:43;;;;;;;16.08;11.57;;;10.80;99.90;;;;;;5027975;28;20049;-82
2023/01/07 05:07:09;;;;;;;14.88;10.98;;;10.80;99.90;;;;;;5046436;28;20503;-81
2023/01/07 05:09:34;;;;;;;15.60;11.57;;;10.80;99.90;;;;;;5028707;28;20098;-81
2023/01/07 05:12:00;;;;;;;14.23;10.57;;;10.80;99.90;;;;;;5028034;28;20524;-82
2023/01/07 05:14:26;;;;;;;14.52;11.45;;;10.80;99.90;;;;;;5028879;28;20053;-82
2023/01/07 05:16:51;;;;;;;14.30;11.57;;;10.80;99.90;;;;;;5027652;28;20377;-81
2023/01/07 05:19:18;;;;;;;15.45;10.85;;;10.80;99.90;;;;;;4996028;28;20045;-82
2023/01/07 05:21:43;;;;;;;14.70;11.32;;;10.70;99.90;;;;;;5027979;28;20511;-81
2023/01/07 05:24:09;;;;;;;13.32;10.82;;;10.70;99.90;;;;;;5028655;28;20083;-81
2023/01/07 05:26:35;;;;;;;18.85;11.38;;;11.00;99.90;;;;;;4995132;28;20131;-81
2023/01/07 05:29:01;;;;;;;15.98;10.98;;;10.70;99.90;;;;;;4995107;28;20045;-81
2023/01/07 05:31:27;;;;;;;15.10;11.25;;;10.70;99.90;;;;;;5012098;28;20029;-81
2023/01/07 05:33:52;;;;;;;16.13;10.60;;;10.70;99.90;;;;;;5027271;28;20522;-81
2023/01/07 05:36:18;;;;;;;17.17;10.98;;;10.70;99.90;;;;;;5011749;28;20122;-81
2023/01/07 05:38:44;;;;;;;14.80;10.52;;;10.70;99.90;;;;;;5027565;28;20049;-81
2023/01/07 05:41:10;;;;;;;15.38;10.75;;;10.70;99.90;;;;;;5011430;28;20041;-81
2023/01/07 05:43:39;;;;;;;19.52;10.35;;;10.70;99.90;;;;;;5011228;28;20049;-81
2023/01/07 05:46:04;;;;;;;13.13;10.05;;;10.60;99.90;;;;;;5027758;28;20037;-82
2023/01/07 05:48:30;;;;;;;13.68;10.57;;;10.70;99.90;;;;;;5028276;28;20876;-81
2023/01/07 05:50:56;;;;;;;15.65;9.57;;;10.70;99.90;;;;;;4994522;28;20040;-81
2023/01/07 05:53:21;;;;;;;12.75;9.38;;;10.60;99.90;;;;;;5011564;28;20087;-81
2023/01/07 05:55:47;;;;;;;13.63;10.43;;;10.70;99.90;;;;;;5044896;28;20051;-82
2023/01/07 05:58:13;;;;;;;11.43;9.48;;;10.70;99.90;;;;;;5011181;28;20411;-81
2023/01/07 06:00:39;;;;;;;13.55;9.90;;;10.70;99.90;;;;;;4994117;28;20140;-81
2023/01/07 06:03:04;;;;;;;14.68;9.70;;;10.70;99.90;;;;;;5027245;28;20430;-81
2023/01/07 06:05:31;;;;;;;14.52;9.43;;;10.60;99.90;;;;;;5011241;28;20128;-81
2023/01/07 06:07:57;;;;;;;12.35;9.30;;;10.90;99.90;;;;;;5026779;28;20040;-81
2023/01/07 06:10:22;;;;;;;11.52;8.57;;;10.60;99.90;;;;;;4994522;28;20103;-81
2023/01/07 06:12:50;;;;;;;12.25;8.10;;;10.60;99.90;;;;;;5026447;28;20408;-81
2023/01/07 06:15:16;;;;;;;15.43;8.73;;;10.60;99.90;;;;;;5011532;28;20076;-81
2023/01/07 06:17:42;;;;;;;9.82;8.10;;;10.60;99.90;;;;;;5010585;28;20049;-81
2023/01/07 06:20:08;;;;;;;13.00;8.13;;;10.60;99.90;;;;;;4994284;28;20458;-81
2023/01/07 06:22:34;;;;;;;8.10;7.07;;;10.60;99.90;;;;;;4995049;28;20036;-81
2023/01/07 06:25:00;;;;;;;11.10;7.78;;;10.50;99.90;;;;;;4994353;28;20052;-82
2023/01/07 06:27:26;;;;;;;11.48;7.88;;;10.60;99.90;;;;;;5027076;28;20049;-81
2023/01/07 06:29:52;;;;;;;14.35;8.05;;;10.60;99.90;;;;;;5010443;28;20041;-81
2023/01/07 06:32:17;;;;;;;14.35;8.55;;;10.60;99.90;;;;;;5011265;28;20445;-81
2023/01/07 06:34:43;;;;;;;15.65;7.07;;;10.60;99.90;;;;;;5009863;28;20504;-80
2023/01/07 06:37:09;;;;;;;13.75;7.75;;;10.60;99.90;;;;;;5011055;28;20037;-81
2023/01/07 06:39:34;;;;;;;9.68;7.57;;;10.60;99.90;;;;;;4993984;28;20436;-81
2023/01/07 06:42:00;;;;;;;10.35;7.18;;;10.50;99.90;;;;;;4994189;28;20132;-82
2023/01/07 06:44:26;;;;;;;10.75;8.15;;;10.60;99.90;;;;;;5026930;28;20060;-81
2023/01/07 06:46:52;;;;;;;14.88;8.65;;;10.50;99.90;;;;;;5009863;28;20203;-81
2023/01/07 06:49:20;;;;;;;12.95;7.32;;;10.50;99.90;;;;;;5010819;28;20076;-81
2023/01/07 06:51:46;;;;;;;10.00;7.45;;;10.50;99.90;;;;;;4993795;28;20120;-81
2023/01/07 06:54:11;;;;;;;8.68;7.10;;;10.50;99.90;;;;;;5010264;28;20566;-81
2023/01/07 06:56:37;;;;;;;10.77;7.43;;;10.50;99.90;;;;;;4993973;28;20064;-81
2023/01/07 06:59:03;;;;;;;15.75;8.68;;;10.40;99.90;;;;;;5026397;28;20098;-81
2023/01/07 07:01:28;;;;;;;10.30;6.00;;;10.50;99.90;;;;;;5010416;28;20480;-81
2023/01/07 07:03:54;;;;;;;10.65;7.32;;;10.40;99.90;;;;;;4993214;28;20053;-81
2023/01/07 07:06:20;;;;;;;13.82;6.82;;;10.40;99.90;;;;;;5010161;28;20048;-81
2023/01/07 07:08:45;;;;;;;8.13;6.55;;;10.30;99.90;;;;;;5026380;28;20099;-81
2023/01/07 07:11:11;;;;;;;9.32;6.80;;;10.30;99.90;;;;;;5044562;28;20056;-81
2023/01/07 07:13:37;;;;;;;11.45;6.90;;;10.40;99.90;;;;;;5026050;28;20045;-81
2023/01/07 07:16:03;;;;;;;15.25;6.60;;;10.30;99.90;;;;;;5009821;28;20099;-81
2023/01/07 07:18:29;;;;;;;11.10;5.88;;;10.40;99.90;;;;;;5010113;28;20068;-81
2023/01/07 07:20:57;;;;;;;7.78;5.65;;;10.50;99.90;;;;;;5012568;28;20080;-81
2023/01/07 07:23:23;;;;;;;9.30;5.80;;;10.40;99.90;;;;;;5014666;28;20344;-81
2023/01/07 07:25:48;;;;;;;11.48;6.35;;;10.60;99.90;;;;;;4997061;28;20041;-81
2023/01/07 07:28:15;;;;;;;8.20;6.10;;;10.30;99.90;;;;;;5014400;28;20056;-81
2023/01/07 07:30:41;;;;;;;7.43;6.03;;;10.30;99.90;;;;;;5013434;28;20720;-82
2023/01/07 07:33:07;;;;;;;7.13;5.65;;;10.40;99.90;;;;;;5013633;28;20365;-82
2023/01/07 07:35:33;;;;;;;7.70;6.07;;;10.40;99.90;;;;;;5030308;28;20045;-82
2023/01/07 07:37:58;;;;;;;10.38;6.32;;;10.40;99.90;;;;;;5029490;28;20044;-81
2023/01/07 07:40:24;;;;;;;9.95;6.28;;;10.40;99.90;;;;;;4981579;28;20501;-81
2023/01/07 07:42:50;;;;;;;7.53;5.40;;;10.40;99.90;;;;;;5013444;28;20118;-81
2023/01/07 07:45:18;;;;;;;8.23;5.63;;;10.40;99.90;;;;;;5030542;28;20171;-83
2023/01/07 07:47:45;;;;;;;11.75;5.65;;;10.40;99.90;;;;;;5029743;28;20056;-82
2023/01/07 07:50:10;;;;;;;10.77;5.93;;;10.40;99.90;;;;;;5047614;28;20567;-81
2023/01/07 07:52:36;;;;;;;8.82;6.18;;;10.40;99.90;;;;;;4980484;28;20091;-81
2023/01/07 07:55:02;;;;;;;9.55;5.78;;;10.40;99.90;;;;;;5012734;28;20056;-80
2023/01/07 07:57:27;;;;;;;10.20;6.05;;;10.40;99.90;;;;;;5013409;28;20039;-81
2023/01/07 07:59:53;;;;;;;10.02;5.53;;;10.30;99.90;;;;;;5012522;28;20045;-80
2023/01/07 08:02:19;;;;;;;9.20;5.38;;;10.30;99.90;;;;;;5013526;28;20689;-81
2023/01/07 08:04:45;;;;;;;11.15;5.57;;;10.60;99.90;;;;;;5029250;28;20081;-83
2023/01/07 08:07:11;;;;;;;13.05;5.28;;;10.30;99.90;;;;;;5013300;28;20479;-81
2023/01/07 08:09:38;;;;;;;7.97;4.53;;;10.40;99.90;;;;;;5029449;28;20098;-82
2023/01/07 08:12:04;;;;;;;13.27;5.35;;;10.30;99.90;;;;;;4996244;28;20053;-81
2023/01/07 08:14:30;;;;;;;11.45;4.53;;;10.30;99.90;;;;;;5029387;28;20068;-81
2023/01/07 08:16:56;;;;;;;6.53;4.32;;;10.40;99.90;;;;;;5029664;28;20045;-80
2023/01/07 08:19:21;;;;;;;15.70;5.07;;;10.30;99.90;;;;;;5029638;28;20496;-80
2023/01/07 08:21:50;;;;;;;7.93;4.15;;;10.30;99.90;;;;;;5012427;28;20045;-80
2023/01/07 08:24:15;;;;;;;7.32;4.45;;;10.30;99.90;;;;;;5029258;28;20037;-81
2023/01/07 08:26:41;;;;;;;6.78;4.28;;;10.30;99.90;;;;;;4996236;28;20055;-81
2023/01/07 08:29:07;;;;;;;9.98;4.20;;;10.30;99.90;;;;;;5029230;28;20080;-81
2023/01/07 08:31:33;;;;;;;7.10;4.10;;;10.30;99.90;;;;;;5028360;28;20044;-82
2023/01/07 08:33:59;;;;;;;10.65;4.03;;;10.30;99.90;;;;;;5012057;28;20531;-81
2023/01/07 08:36:24;;;;;;;9.52;4.03;;;10.20;99.90;;;;;;5012759;28;20053;-80
2023/01/07 08:38:54;;;;;;;5.80;3.33;;;10.20;99.90;;;;;;5012392;28;20048;-82
2023/01/07 08:41:21;;;;;;;6.97;3.95;;;10.20;99.90;;;;;;5012755;28;20241;-82
2023/01/07 08:43:47;;;;;;;5.65;3.85;;;10.20;99.90;;;;;;5029143;28;20045;-82
2023/01/07 08:46:12;;;;;;;7.68;4.03;;;10.20;99.90;;;;;;4995600;28;20045;-82
2023/01/07 08:48:39;;;;;;;7.80;3.92;;;10.20;99.90;;;;;;5012852;28;20048;-82
2023/01/07 08:51:05;;;;;;;9.57;3.90;;;10.20;99.90;;;;;;5028027;28;20136;-81
2023/01/07 08:53:31;;;;;;;5.88;3.75;;;10.20;99.90;;;;;;5046943;28;20504;-82
2023/01/07 08:55:57;;;;;;;7.25;3.47;;;10.20;99.90;;;;;;5046150;28;20048;-82
2023/01/07 08:58:24;;;;;;;4.88;3.50;;;10.20;99.90;;;;;;5046734;28;20060;-83
2023/01/07 09:00:51;;;;;;;6.75;3.20;;;10.80;99.90;;;;;;5028818;28;20091;-81
2023/01/07 09:03:17;;;;;;;10.38;3.15;;;10.20;99.90;;;;;;5028099;28;20037;-82
2023/01/07 09:05:45;;;;;;;6.18;2.83;;;10.20;99.90;;;;;;5028494;28;20131;-81
2023/01/07 09:08:11;;;;;;;5.82;3.20;;;10.20;99.90;;;;;;5027884;28;20033;-82
2023/01/07 09:10:36;;;;;;;7.38;3.88;;;10.20;99.90;;;;;;4979588;28;20047;-82
2023/01/07 09:13:02;;;;;;;9.90;3.25;;;10.30;99.90;;;;;;5011071;28;20088;-83
2023/01/07 09:15:28;;;;;;;7.88;2.85;;;10.20;99.90;;;;;;5011930;28;20049;-83
2023/01/07 09:17:53;;;;;;;5.07;2.92;;;10.20;99.90;;;;;;5011356;28;20036;-82
2023/01/07 09:20:20;;;;;;;7.65;2.90;;;10.20;99.90;;;;;;4995265;28;20040;-81
2023/01/07 09:22:46;;;;;;;7.80;2.75;;;10.20;99.90;;;;;;4995862;28;20051;-82
2023/01/07 09:25:12;;;;;;;4.63;2.60;;;10.20;99.90;;;;;;4994895;28;20048;-82
2023/01/07 09:27:38;;;;;;;5.53;2.65;;;10.20;99.90;;;;;;5028020;28;20048;-81
2023/01/07 09:30:06;;;;;;;4.57;2.55;;;10.20;99.90;;;;;;5045737;28;20033;-81
2023/01/07 09:32:32;;;;;;;2.55;2.35;;;10.20;99.90;;;;;;5028448;28;20053;-82
2023/01/07 09:34:58;;;;;;;7.25;2.50;;;10.30;99.90;;;;;;5011601;28;20132;-82
2023/01/07 09:37:23;;;;;;;3.28;2.50;;;10.30;99.90;;;;;;5027624;28;20041;-83
2023/01/07 09:39:49;;;;;;;3.83;2.33;;;10.30;99.90;;;;;;4978917;28;20058;-81
2023/01/07 09:42:41;;;;;;;6.25;2.95;;;10.40;99.90;;;;;;5027130;28;20045;-82
2023/01/07 09:45:18;;;;;;;6.40;2.80;;;10.30;99.90;;;;;;5028064;28;20044;-82
2023/01/07 09:47:48;;;;;;;6.00;2.42;;;10.30;99.90;;;;;;5011591;28;20115;-82
2023/01/07 09:50:41;;;;;;;7.45;2.53;;;10.50;99.90;;;;;;5011217;28;20120;-85
2023/01/07 09:53:19;;;;;;;6.63;2.72;;;10.30;99.90;;;;;;5011474;28;20048;-82
2023/01/07 09:55:49;;;;;;;6.47;2.15;;;10.30;99.90;;;;;;5027367;28;20054;-81
2023/01/07 09:58:17;;;;;;;7.28;2.80;;;10.40;99.90;;;;;;5027622;28;20048;-81
2023/01/07 10:00:48;;;;;;;8.68;2.42;;;10.40;99.90;;;;;;5027626;28;20416;-80
2023/01/07 10:03:36;;;;;;;6.70;2.40;;;10.40;99.90;;;;;;5011427;28;20052;-81
2023/01/07 10:06:13;;;;;;;4.22;1.73;;;10.40;99.90;;;;;;5027648;28;20136;-81
2023/01/07 10:09:00;;;;;;;6.30;2.40;;;10.50;99.90;;;;;;5027017;28;20052;-81
2023/01/07 10:11:39;;;;;;;6.00;2.70;;;10.40;99.90;;;;;;5027115;28;20060;-81
2023/01/07 10:14:43;;;;;;;4.13;2.42;;;10.40;99.90;;;;;;5011381;28;20049;-82
2023/01/07 10:17:28;;;;;;;8.00;2.35;;;10.40;99.90;;;;;;5027177;28;20045;-82
2023/01/07 10:20:39;;;;;;;2.95;2.03;;;10.40;99.90;;;;;;5027513;28;20052;-81
2023/01/07 10:23:14;;;;;;;5.88;2.22;;;10.40;99.90;;;;;;5011424;28;20064;-83
2023/01/07 10:25:54;;;;;;;3.95;1.73;;;10.40;99.90;;;;;;5026666;28;20075;-84
2023/01/07 10:28:47;;;;;;;5.57;1.95;;;10.40;99.90;;;;;;5010562;28;20037;-81
2023/01/07 10:31:18;;;;;;;;;;;10.40;99.90;;;;;;5027748;28;20045;-82
2023/01/07 10:33:46;;;;;;;3.00;1.77;;;10.50;99.90;;;;;;5010259;28;19979;-82
2023/01/07 10:36:34;;;;;;;4.82;2.15;;;10.50;99.90;;;;;;5010294;28;20048;-83
2023/01/07 10:39:34;;;;;;;4.10;2.45;;;10.50;99.90;;;;;;5009777;28;20574;-81
2023/01/07 10:42:08;;;;;;;3.30;1.80;;;10.50;99.90;;;;;;5026894;28;20072;-82
2023/01/07 10:45:14;;;;;;;4.43;2.10;;;10.50;99.90;;;;;;5010803;28;20423;-81
2023/01/07 10:48:20;;;;;;;3.03;1.60;;;10.50;99.90;;;;;;5009124;28;20045;-82
2023/01/07 10:51:07;;;;;;;2.45;1.80;;;10.60;99.90;;;;;;5010286;28;20052;-82
2023/01/07 10:53:39;;;;;;;3.70;1.83;;;10.60;99.90;;;;;;5027059;28;20045;-82
2023/01/07 10:56:28;;;;;;;3.05;1.25;;;10.60;99.90;;;;;;5026177;28;20466;-81
2023/01/07 10:58:54;;;;;;;2.13;1.60;;;10.70;99.90;;;;;;5026690;28;20041;-81
2023/01/07 11:01:36;;;;;;;3.95;1.63;;;10.70;99.90;;;;;;4994047;28;20480;-81
2023/01/07 11:04:03;;;;;;;9.00;1.67;;;10.70;99.90;;;;;;5009452;28;20053;-81
2023/01/07 11:06:38;;;;;;;4.70;1.65;;;10.80;99.90;;;;;;5010965;28;20400;-82
2023/01/07 11:09:08;;;;;;;4.82;2.15;;;10.80;99.90;;;;;;5026458;28;20140;-82
2023/01/07 11:11:35;;;;;;;2.28;1.35;;;10.90;99.90;;;;;;5026536;28;20136;-82
2023/01/07 11:14:05;;;;;;;4.88;1.88;;;10.90;99.90;;;;;;5010042;28;20045;-82
2023/01/07 11:16:40;;;;;;;2.75;1.48;;;10.90;99.90;;;;;;5026068;28;20041;-82
2023/01/07 11:19:11;;;;;;;5.43;2.00;;;10.90;99.90;;;;;;5026149;28;20056;-81
2023/01/07 11:21:39;;;;;;;5.28;1.30;;;10.90;99.90;;;;;;5025658;28;20128;-82
2023/01/07 11:24:25;;;;;;;4.57;1.25;;;10.90;99.90;;;;;;5026606;28;20048;-82
2023/01/07 11:26:57;;;;;;;3.78;1.20;;;11.00;99.90;;;;;;5015421;28;20060;-82
2023/01/07 11:29:27;;;;;;;2.60;1.30;;;11.00;99.90;;;;;;5010062;28;20585;-81
2023/01/07 11:31:58;;;;;;;3.20;1.48;;;11.10;99.90;;;;;;5010839;28;20056;-82
2023/01/07 11:34:58;;;;;;;4.72;1.20;;;11.10;99.90;;;;;;5025606;28;20123;-81
2023/01/07 11:37:42;;;;;;;2.72;0.98;;;11.10;99.90;;;;;;5026289;28;20053;-82
2023/01/07 11:40:11;;;;;;;2.15;0.98;;;11.20;99.90;;;;;;5025958;28;20140;-82
2023/01/07 11:42:55;;;;;;;2.67;1.00;;;11.20;99.90;;;;;;5009160;28;20140;-82
2023/01/07 11:45:30;;;;;;;2.92;1.20;;;11.30;99.90;;;;;;5026269;28;20053;-81
2023/01/07 11:48:09;;;;;;;3.38;2.40;;;11.30;99.90;;;;;;5026071;28;20041;-81
2023/01/07 11:50:53;;;;;;;3.63;1.20;;;11.30;99.90;;;;;;5043728;28;20124;-82
2023/01/07 11:53:18;;;;;;;2.20;1.20;;;11.30;99.90;;;;;;5009757;28;20148;-82
2023/01/07 11:56:01;;;;;;;3.28;1.30;;;11.50;99.90;;;;;;5025321;28;20091;-82
2023/01/07 11:58:33;;;;;;;3.83;1.77;;;11.40;99.90;;;;;;5026263;28;20045;-81
2023/01/07 12:01:02;;;;;;;3.67;1.50;;;11.40;99.90;;;;;;5009126;28;20107;-81
2023/01/07 12:03:28;;;;;;;3.28;1.77;;;11.40;99.90;;;;;;5009226;28;20148;-82
2023/01/07 12:06:04;;;;;;;4.10;1.42;;;11.70;99.90;;;;;;4977320;28;20129;-81
2023/01/07 12:08:30;;;;;;;4.25;2.53;;;11.20;99.90;;;;;;5028181;28;20626;-82
2023/01/07 12:11:01;;;;;;;8.45;3.92;;;11.40;99.90;;;;;;4996916;28;20048;-82
2023/01/07 12:13:27;;;;;;;4.65;2.25;;;11.30;99.90;;;;;;5046171;28;20126;-81
2023/01/07 12:16:03;;;;;;;5.25;2.15;;;11.30;99.90;;;;;;5046995;28;20489;-82
2023/01/07 12:18:32;;;;;;;1.67;1.58;;;11.30;99.90;;;;;;5013203;28;20493;-81
2023/01/07 12:21:17;;;;;;;7.03;1.42;;;11.30;99.90;;;;;;5011783;28;20049;-82
2023/01/07 12:24:14;;;;;;;3.38;1.40;;;11.30;99.90;;;;;;5029316;28;20049;-81
2023/01/07 12:26:40;;;;;;;4.10;1.10;;;11.30;99.90;;;;;;5046809;28;20080;-82
2023/01/07 12:29:24;;;;;;;3.15;1.38;;;11.30;99.90;;;;;;5028258;28;20080;-82
2023/01/07 12:32:27;;;;;;;1.92;1.52;;;11.20;99.90;;;;;;5046434;28;20508;-83
2023/01/07 12:35:08;;;;;;;1.03;0.80;;;11.30;99.90;;;;;;5012597;28;20040;-82
2023/01/07 12:37:58;;;;;;;5.00;1.45;;;11.30;99.90;;;;;;5011884;28;20055;-83
2023/01/07 12:40:53;;;;;;;9.93;6.93;;;11.40;99.90;;;;;;5046843;28;20132;-82
2023/01/07 12:43:23;;;;;;;3.15;1.33;;;11.40;99.90;;;;;;5028465;28;20044;-83
2023/01/07 12:45:59;;;;;;;2.78;1.15;;;12.50;99.90;;;;;;5028771;28;20095;-82
2023/01/07 12:48:49;;;;;;;1.75;1.20;;;11.40;99.90;;;;;;5028183;28;20045;-81
2023/01/07 12:51:32;;;;;;;1.25;0.80;;;11.50;99.90;;;;;;5026462;28;20056;-82
2023/01/07 12:54:11;;;;;;;3.15;1.17;;;11.50;99.90;;;;;;5028721;28;20045;-82
2023/01/07 12:56:54;;;;;;;3.95;1.15;;;11.50;99.90;;;;;;5046781;28;20086;-82
2023/01/07 12:59:38;;;;;;;;;;;11.10;99.90;;;;;;5012668;28;20139;-82
2023/01/07 13:02:20;;;;;;;3.10;0.90;;;11.50;99.90;;;;;;5029302;28;19920;-82